sensor_id;sensor_type;location;lat;lon;timestamp;temperature;humidity
23532;DHT22;11943;52.270;20.978;2022-10-16T00:00:56;14.50;99.90
23532;DHT22;11943;52.270;20.978;2022-10-16T00:03:21;14.50;99.90
23532;DHT22;11943;52.270;20.978;2022-10-16T00:05:47;14.50;99.90
23532;DHT22;11943;52.270;20.978;2022-10-16T00:08:12;14.50;99.90
23532;DHT22;11943;52.270;20.978;2022-10-16T00:10:38;14.50;99.90
23532;DHT22;11943;52.270;20.978;2022-10-16T00:13:04;14.50;99.90
23532;DHT22;11943;52.270;20.978;2022-10-16T00:15:30;14.50;99.90
23532;DHT22;11943;52.270;20.978;2022-10-16T00:17:57;14.50;99.90
23532;DHT22;11943;52.270;20.978;2022-10-16T00:20:23;14.60;99.90
23532;DHT22;11943;52.270;20.978;2022-10-16T00:22:48;14.50;99.90
23532;DHT22;11943;52.270;20.978;2022-10-16T00:25:14;14.60;99.90
23532;DHT22;11943;52.270;20.978;2022-10-16T00:27:39;14.60;99.90
23532;DHT22;11943;52.270;20.978;2022-10-16T00:30:05;14.60;99.90
23532;DHT22;11943;52.270;20.978;2022-10-16T00:32:31;14.60;99.90
23532;DHT22;11943;52.270;20.978;2022-10-16T00:34:56;14.60;99.90
23532;DHT22;11943;52.270;20.978;2022-10-16T00:37:22;14.70;99.90
23532;DHT22;11943;52.270;20.978;2022-10-16T00:39:47;14.60;99.90
23532;DHT22;11943;52.270;20.978;2022-10-16T00:42:14;14.70;99.90
23532;DHT22;11943;52.270;20.978;2022-10-16T00:44:48;14.60;99.90
23532;DHT22;11943;52.270;20.978;2022-10-16T00:47:17;14.60;99.90
23532;DHT22;11943;52.270;20.978;2022-10-16T00:49:43;14.60;99.90
23532;DHT22;11943;52.270;20.978;2022-10-16T00:52:08;14.60;99.90
23532;DHT22;11943;52.270;20.978;2022-10-16T00:54:35;14.60;99.90
23532;DHT22;11943;52.270;20.978;2022-10-16T00:57:01;14.70;99.90
23532;DHT22;11943;52.270;20.978;2022-10-16T00:59:29;14.60;99.90
23532;DHT22;11943;52.270;20.978;2022-10-16T01:01:55;14.60;99.90
23532;DHT22;11943;52.270;20.978;2022-10-16T01:04:21;14.60;99.90
23532;DHT22;11943;52.270;20.978;2022-10-16T01:07:00;14.60;99.90
23532;DHT22;11943;52.270;20.978;2022-10-16T01:12:15;14.50;99.90
23532;DHT22;11943;52.270;20.978;2022-10-16T01:22:48;14.50;99.90
23532;DHT22;11943;52.270;20.978;2022-10-16T01:25:47;14.40;99.90
23532;DHT22;11943;52.270;20.978;2022-10-16T01:28:04;14.40;99.90
23532;DHT22;11943;52.270;20.978;2022-10-16T01:30:31;14.40;99.90
23532;DHT22;11943;52.270;20.978;2022-10-16T01:33:00;14.40;99.90
23532;DHT22;11943;52.270;20.978;2022-10-16T01:35:27;14.40;99.90
23532;DHT22;11943;52.270;20.978;2022-10-16T01:37:57;14.40;99.90
23532;DHT22;11943;52.270;20.978;2022-10-16T01:40:25;14.40;99.90
23532;DHT22;11943;52.270;20.978;2022-10-16T01:43:02;14.40;99.90
23532;DHT22;11943;52.270;20.978;2022-10-16T01:45:29;14.40;99.90
23532;DHT22;11943;52.270;20.978;2022-10-16T01:47:56;14.30;99.90
23532;DHT22;11943;52.270;20.978;2022-10-16T01:50:23;14.30;99.90
23532;DHT22;11943;52.270;20.978;2022-10-16T01:52:50;14.30;99.90
23532;DHT22;11943;52.270;20.978;2022-10-16T01:55:22;14.30;99.90
23532;DHT22;11943;52.270;20.978;2022-10-16T01:57:48;14.20;99.90
23532;DHT22;11943;52.270;20.978;2022-10-16T02:00:14;14.20;99.90
23532;DHT22;11943;52.270;20.978;2022-10-16T02:02:43;14.10;99.90
23532;DHT22;11943;52.270;20.978;2022-10-16T02:05:15;14.10;99.90
23532;DHT22;11943;52.270;20.978;2022-10-16T02:07:41;14.10;99.90
23532;DHT22;11943;52.270;20.978;2022-10-16T02:10:07;14.10;99.90
23532;DHT22;11943;52.270;20.978;2022-10-16T02:12:33;14.10;99.90
23532;DHT22;11943;52.270;20.978;2022-10-16T02:15:02;14.10;99.90
23532;DHT22;11943;52.270;20.978;2022-10-16T02:17:28;14.10;99.90
23532;DHT22;11943;52.270;20.978;2022-10-16T02:19:54;14.10;99.90
23532;DHT22;11943;52.270;20.978;2022-10-16T02:22:27;14.10;99.90
23532;DHT22;11943;52.270;20.978;2022-10-16T02:24:54;14.10;99.90
23532;DHT22;11943;52.270;20.978;2022-10-16T02:27:27;14.10;99.90
23532;DHT22;11943;52.270;20.978;2022-10-16T02:29:55;14.10;99.90
23532;DHT22;11943;52.270;20.978;2022-10-16T02:32:24;14.10;99.90
23532;DHT22;11943;52.270;20.978;2022-10-16T02:34:51;14.20;99.90
23532;DHT22;11943;52.270;20.978;2022-10-16T02:37:17;14.30;99.90
23532;DHT22;11943;52.270;20.978;2022-10-16T02:39:43;14.20;99.90
23532;DHT22;11943;52.270;20.978;2022-10-16T02:42:10;14.20;99.90
23532;DHT22;11943;52.270;20.978;2022-10-16T02:44:35;14.10;99.90
23532;DHT22;11943;52.270;20.978;2022-10-16T02:47:01;14.10;99.90
23532;DHT22;11943;52.270;20.978;2022-10-16T02:49:26;14.20;99.90
23532;DHT22;11943;52.270;20.978;2022-10-16T02:51:51;14.10;99.90
23532;DHT22;11943;52.270;20.978;2022-10-16T02:54:17;14.20;99.90
23532;DHT22;11943;52.270;20.978;2022-10-16T02:56:42;14.20;99.90
23532;DHT22;11943;52.270;20.978;2022-10-16T02:59:08;14.20;99.90
23532;DHT22;11943;52.270;20.978;2022-10-16T03:01:33;14.30;99.90
23532;DHT22;11943;52.270;20.978;2022-10-16T03:03:59;14.20;99.90
23532;DHT22;11943;52.270;20.978;2022-10-16T03:06:24;14.20;99.90
23532;DHT22;11943;52.270;20.978;2022-10-16T03:08:50;14.20;99.90
23532;DHT22;11943;52.270;20.978;2022-10-16T03:11:15;14.20;99.90
23532;DHT22;11943;52.270;20.978;2022-10-16T03:13:41;14.20;99.90
23532;DHT22;11943;52.270;20.978;2022-10-16T03:16:06;14.30;99.90
23532;DHT22;11943;52.270;20.978;2022-10-16T03:18:32;14.20;99.90
23532;DHT22;11943;52.270;20.978;2022-10-16T03:20:57;14.20;99.90
23532;DHT22;11943;52.270;20.978;2022-10-16T03:23:23;14.20;99.90
23532;DHT22;11943;52.270;20.978;2022-10-16T03:25:48;14.20;99.90
23532;DHT22;11943;52.270;20.978;2022-10-16T03:28:14;14.20;99.90
23532;DHT22;11943;52.270;20.978;2022-10-16T03:30:39;14.10;99.90
23532;DHT22;11943;52.270;20.978;2022-10-16T03:33:05;14.10;99.90
23532;DHT22;11943;52.270;20.978;2022-10-16T03:35:31;14.10;99.90
23532;DHT22;11943;52.270;20.978;2022-10-16T03:37:57;14.10;99.90
23532;DHT22;11943;52.270;20.978;2022-10-16T03:40:22;14.10;99.90
23532;DHT22;11943;52.270;20.978;2022-10-16T03:42:48;14.10;99.90
23532;DHT22;11943;52.270;20.978;2022-10-16T03:45:13;14.10;99.90
23532;DHT22;11943;52.270;20.978;2022-10-16T03:47:39;14.10;99.90
23532;DHT22;11943;52.270;20.978;2022-10-16T03:50:04;14.10;99.90
23532;DHT22;11943;52.270;20.978;2022-10-16T03:52:30;14.10;99.90
23532;DHT22;11943;52.270;20.978;2022-10-16T03:54:57;14.10;99.90
23532;DHT22;11943;52.270;20.978;2022-10-16T03:57:23;14.10;99.90
23532;DHT22;11943;52.270;20.978;2022-10-16T03:59:49;14.00;99.90
23532;DHT22;11943;52.270;20.978;2022-10-16T04:02:14;14.00;99.90
23532;DHT22;11943;52.270;20.978;2022-10-16T04:04:40;14.00;99.90
23532;DHT22;11943;52.270;20.978;2022-10-16T04:07:05;13.90;99.90
23532;DHT22;11943;52.270;20.978;2022-10-16T04:09:31;13.90;99.90
23532;DHT22;11943;52.270;20.978;2022-10-16T04:11:56;13.80;99.90
23532;DHT22;11943;52.270;20.978;2022-10-16T04:14:22;13.70;99.90
23532;DHT22;11943;52.270;20.978;2022-10-16T04:16:47;13.70;99.90
23532;DHT22;11943;52.270;20.978;2022-10-16T04:19:13;13.60;99.90
23532;DHT22;11943;52.270;20.978;2022-10-16T04:21:38;13.60;99.90
23532;DHT22;11943;52.270;20.978;2022-10-16T04:24:04;13.60;99.90
23532;DHT22;11943;52.270;20.978;2022-10-16T04:26:29;13.60;99.90
23532;DHT22;11943;52.270;20.978;2022-10-16T04:28:55;13.60;99.90
23532;DHT22;11943;52.270;20.978;2022-10-16T04:31:20;13.60;99.90
23532;DHT22;11943;52.270;20.978;2022-10-16T04:33:46;13.60;99.90
23532;DHT22;11943;52.270;20.978;2022-10-16T04:36:12;13.60;99.90
23532;DHT22;11943;52.270;20.978;2022-10-16T04:38:38;13.60;99.90
23532;DHT22;11943;52.270;20.978;2022-10-16T04:41:05;13.60;99.90
23532;DHT22;11943;52.270;20.978;2022-10-16T04:43:30;13.60;99.90
23532;DHT22;11943;52.270;20.978;2022-10-16T04:45:56;13.60;99.90
23532;DHT22;11943;52.270;20.978;2022-10-16T04:48:21;13.60;99.90
23532;DHT22;11943;52.270;20.978;2022-10-16T04:50:47;13.50;99.90
23532;DHT22;11943;52.270;20.978;2022-10-16T04:53:12;13.50;99.90
23532;DHT22;11943;52.270;20.978;2022-10-16T04:55:38;13.50;99.90
23532;DHT22;11943;52.270;20.978;2022-10-16T04:58:04;13.50;99.90
23532;DHT22;11943;52.270;20.978;2022-10-16T05:00:29;13.50;99.90
23532;DHT22;11943;52.270;20.978;2022-10-16T05:02:55;13.40;99.90
23532;DHT22;11943;52.270;20.978;2022-10-16T05:05:20;13.40;99.90
23532;DHT22;11943;52.270;20.978;2022-10-16T05:07:46;13.40;99.90
23532;DHT22;11943;52.270;20.978;2022-10-16T05:10:12;13.40;99.90
23532;DHT22;11943;52.270;20.978;2022-10-16T05:12:37;13.30;99.90
23532;DHT22;11943;52.270;20.978;2022-10-16T05:15:03;13.30;99.90
23532;DHT22;11943;52.270;20.978;2022-10-16T05:17:28;13.30;99.90
23532;DHT22;11943;52.270;20.978;2022-10-16T05:19:54;13.30;99.90
23532;DHT22;11943;52.270;20.978;2022-10-16T05:22:19;13.20;99.90
23532;DHT22;11943;52.270;20.978;2022-10-16T05:24:45;13.30;99.90
23532;DHT22;11943;52.270;20.978;2022-10-16T05:27:10;13.30;99.90
23532;DHT22;11943;52.270;20.978;2022-10-16T05:29:36;13.30;99.90
23532;DHT22;11943;52.270;20.978;2022-10-16T05:32:02;13.20;99.90
23532;DHT22;11943;52.270;20.978;2022-10-16T05:34:27;13.20;99.90
23532;DHT22;11943;52.270;20.978;2022-10-16T05:36:53;13.30;99.90
23532;DHT22;11943;52.270;20.978;2022-10-16T05:39:18;13.20;99.90
23532;DHT22;11943;52.270;20.978;2022-10-16T05:41:44;13.20;99.90
23532;DHT22;11943;52.270;20.978;2022-10-16T05:44:09;13.20;99.90
23532;DHT22;11943;52.270;20.978;2022-10-16T05:46:35;13.20;99.90
23532;DHT22;11943;52.270;20.978;2022-10-16T05:49:00;13.20;99.90
23532;DHT22;11943;52.270;20.978;2022-10-16T05:51:26;13.20;99.90
23532;DHT22;11943;52.270;20.978;2022-10-16T05:53:51;13.30;99.90
23532;DHT22;11943;52.270;20.978;2022-10-16T05:56:17;13.20;99.90
23532;DHT22;11943;52.270;20.978;2022-10-16T05:58:42;13.30;99.90
23532;DHT22;11943;52.270;20.978;2022-10-16T06:01:16;13.40;99.90
23532;DHT22;11943;52.270;20.978;2022-10-16T06:03:42;13.30;99.90
23532;DHT22;11943;52.270;20.978;2022-10-16T06:06:10;13.30;99.90
23532;DHT22;11943;52.270;20.978;2022-10-16T06:08:36;13.30;99.90
23532;DHT22;11943;52.270;20.978;2022-10-16T06:11:02;13.40;99.90
23532;DHT22;11943;52.270;20.978;2022-10-16T06:13:28;13.40;99.90
23532;DHT22;11943;52.270;20.978;2022-10-16T06:15:56;13.50;99.90
23532;DHT22;11943;52.270;20.978;2022-10-16T06:18:22;13.50;99.90
23532;DHT22;11943;52.270;20.978;2022-10-16T06:20:47;13.50;99.90
23532;DHT22;11943;52.270;20.978;2022-10-16T06:23:13;13.60;99.90
23532;DHT22;11943;52.270;20.978;2022-10-16T06:25:38;13.60;99.90
23532;DHT22;11943;52.270;20.978;2022-10-16T06:28:03;13.60;99.90
23532;DHT22;11943;52.270;20.978;2022-10-16T06:30:29;13.70;99.90
23532;DHT22;11943;52.270;20.978;2022-10-16T06:32:54;13.80;99.90
23532;DHT22;11943;52.270;20.978;2022-10-16T06:35:20;13.90;99.90
23532;DHT22;11943;52.270;20.978;2022-10-16T06:37:45;13.90;99.90
23532;DHT22;11943;52.270;20.978;2022-10-16T06:40:11;14.00;99.90
23532;DHT22;11943;52.270;20.978;2022-10-16T06:42:36;14.10;99.90
23532;DHT22;11943;52.270;20.978;2022-10-16T06:45:02;14.10;99.90
23532;DHT22;11943;52.270;20.978;2022-10-16T06:47:27;14.20;99.90
23532;DHT22;11943;52.270;20.978;2022-10-16T06:49:53;14.30;99.90
23532;DHT22;11943;52.270;20.978;2022-10-16T06:52:18;14.30;99.90
23532;DHT22;11943;52.270;20.978;2022-10-16T06:54:44;14.30;99.90
23532;DHT22;11943;52.270;20.978;2022-10-16T06:57:09;14.50;99.90
23532;DHT22;11943;52.270;20.978;2022-10-16T06:59:35;14.60;99.90
23532;DHT22;11943;52.270;20.978;2022-10-16T07:02:00;14.70;99.90
23532;DHT22;11943;52.270;20.978;2022-10-16T07:04:26;15.00;99.90
23532;DHT22;11943;52.270;20.978;2022-10-16T07:06:51;15.00;99.90
23532;DHT22;11943;52.270;20.978;2022-10-16T07:09:16;15.10;99.90
23532;DHT22;11943;52.270;20.978;2022-10-16T07:11:42;15.10;99.90
23532;DHT22;11943;52.270;20.978;2022-10-16T07:14:17;14.90;99.90
23532;DHT22;11943;52.270;20.978;2022-10-16T07:16:43;14.90;99.90
23532;DHT22;11943;52.270;20.978;2022-10-16T07:19:09;14.80;99.90
23532;DHT22;11943;52.270;20.978;2022-10-16T07:21:36;14.80;99.90
23532;DHT22;11943;52.270;20.978;2022-10-16T07:24:02;14.70;99.90
23532;DHT22;11943;52.270;20.978;2022-10-16T07:26:31;14.80;99.90
23532;DHT22;11943;52.270;20.978;2022-10-16T07:28:57;14.70;99.90
23532;DHT22;11943;52.270;20.978;2022-10-16T07:31:23;14.70;99.90
23532;DHT22;11943;52.270;20.978;2022-10-16T07:33:49;14.60;99.90
23532;DHT22;11943;52.270;20.978;2022-10-16T07:36:15;14.70;99.90
23532;DHT22;11943;52.270;20.978;2022-10-16T07:38:41;14.80;99.90
23532;DHT22;11943;52.270;20.978;2022-10-16T07:41:08;14.80;99.90
23532;DHT22;11943;52.270;20.978;2022-10-16T07:43:34;15.00;99.90
23532;DHT22;11943;52.270;20.978;2022-10-16T07:46:00;15.20;99.90
23532;DHT22;11943;52.270;20.978;2022-10-16T07:48:29;15.50;99.90
23532;DHT22;11943;52.270;20.978;2022-10-16T07:51:02;15.60;99.90
23532;DHT22;11943;52.270;20.978;2022-10-16T07:53:28;15.90;99.90
23532;DHT22;11943;52.270;20.978;2022-10-16T07:56:00;16.00;99.90
23532;DHT22;11943;52.270;20.978;2022-10-16T07:58:27;16.20;99.90
23532;DHT22;11943;52.270;20.978;2022-10-16T08:00:53;16.00;99.90
23532;DHT22;11943;52.270;20.978;2022-10-16T08:03:18;16.10;99.90
23532;DHT22;11943;52.270;20.978;2022-10-16T08:05:43;16.20;99.90
23532;DHT22;11943;52.270;20.978;2022-10-16T08:08:13;16.30;99.90
23532;DHT22;11943;52.270;20.978;2022-10-16T08:10:38;16.30;99.90
23532;DHT22;11943;52.270;20.978;2022-10-16T08:13:04;16.50;99.90
23532;DHT22;11943;52.270;20.978;2022-10-16T08:15:29;16.60;99.90
23532;DHT22;11943;52.270;20.978;2022-10-16T08:17:58;16.40;99.90
23532;DHT22;11943;52.270;20.978;2022-10-16T08:20:24;16.40;99.90
23532;DHT22;11943;52.270;20.978;2022-10-16T08:22:50;16.50;99.90
23532;DHT22;11943;52.270;20.978;2022-10-16T08:25:16;16.50;99.90
23532;DHT22;11943;52.270;20.978;2022-10-16T08:27:41;16.60;99.90
23532;DHT22;11943;52.270;20.978;2022-10-16T08:30:07;16.60;99.90
23532;DHT22;11943;52.270;20.978;2022-10-16T08:32:33;16.70;99.90
23532;DHT22;11943;52.270;20.978;2022-10-16T08:34:58;16.80;99.90
23532;DHT22;11943;52.270;20.978;2022-10-16T08:37:23;16.80;99.90
23532;DHT22;11943;52.270;20.978;2022-10-16T08:39:49;17.10;99.90
23532;DHT22;11943;52.270;20.978;2022-10-16T08:42:25;17.30;99.90
23532;DHT22;11943;52.270;20.978;2022-10-16T08:50:10;17.70;99.90
23532;DHT22;11943;52.270;20.978;2022-10-16T08:52:38;17.90;99.90
23532;DHT22;11943;52.270;20.978;2022-10-16T08:55:04;17.90;99.90
23532;DHT22;11943;52.270;20.978;2022-10-16T08:57:30;18.00;99.90
23532;DHT22;11943;52.270;20.978;2022-10-16T08:59:59;18.00;99.90
23532;DHT22;11943;52.270;20.978;2022-10-16T09:02:31;18.00;99.90
23532;DHT22;11943;52.270;20.978;2022-10-16T09:13:12;18.30;99.90
23532;DHT22;11943;52.270;20.978;2022-10-16T09:15:48;18.10;99.90
23532;DHT22;11943;52.270;20.978;2022-10-16T09:18:24;18.10;99.90
23532;DHT22;11943;52.270;20.978;2022-10-16T09:23:22;18.30;99.90
23532;DHT22;11943;52.270;20.978;2022-10-16T09:25:50;18.70;99.90
23532;DHT22;11943;52.270;20.978;2022-10-16T09:28:17;18.60;99.90
23532;DHT22;11943;52.270;20.978;2022-10-16T09:30:43;18.70;99.90
23532;DHT22;11943;52.270;20.978;2022-10-16T09:33:09;18.90;99.90
23532;DHT22;11943;52.270;20.978;2022-10-16T09:38:03;18.70;99.90
23532;DHT22;11943;52.270;20.978;2022-10-16T09:40:33;18.90;99.90
23532;DHT22;11943;52.270;20.978;2022-10-16T09:45:33;19.00;99.90
23532;DHT22;11943;52.270;20.978;2022-10-16T09:48:00;18.70;99.90
23532;DHT22;11943;52.270;20.978;2022-10-16T09:50:27;18.70;99.90
23532;DHT22;11943;52.270;20.978;2022-10-16T09:53:03;18.60;99.90
23532;DHT22;11943;52.270;20.978;2022-10-16T09:55:29;18.70;99.90
23532;DHT22;11943;52.270;20.978;2022-10-16T09:57:54;19.10;99.90
23532;DHT22;11943;52.270;20.978;2022-10-16T10:00:21;19.10;99.90
23532;DHT22;11943;52.270;20.978;2022-10-16T10:02:47;19.00;99.90
23532;DHT22;11943;52.270;20.978;2022-10-16T10:07:52;19.00;99.90
23532;DHT22;11943;52.270;20.978;2022-10-16T10:10:20;19.00;99.90
23532;DHT22;11943;52.270;20.978;2022-10-16T10:12:46;19.10;99.90
23532;DHT22;11943;52.270;20.978;2022-10-16T10:15:11;19.10;99.90
23532;DHT22;11943;52.270;20.978;2022-10-16T10:17:48;19.20;99.90
23532;DHT22;11943;52.270;20.978;2022-10-16T10:20:22;19.20;99.90
23532;DHT22;11943;52.270;20.978;2022-10-16T10:22:47;19.20;99.90
23532;DHT22;11943;52.270;20.978;2022-10-16T10:32:55;19.60;99.90
23532;DHT22;11943;52.270;20.978;2022-10-16T10:35:25;19.70;99.90
23532;DHT22;11943;52.270;20.978;2022-10-16T10:38:06;19.40;99.90
23532;DHT22;11943;52.270;20.978;2022-10-16T10:40:43;19.30;99.90
23532;DHT22;11943;52.270;20.978;2022-10-16T10:43:26;19.30;99.90
23532;DHT22;11943;52.270;20.978;2022-10-16T10:45:54;19.50;99.90
23532;DHT22;11943;52.270;20.978;2022-10-16T10:51:05;19.40;99.90
23532;DHT22;11943;52.270;20.978;2022-10-16T10:56:22;19.50;99.90
23532;DHT22;11943;52.270;20.978;2022-10-16T10:59:30;19.30;99.90
23532;DHT22;11943;52.270;20.978;2022-10-16T11:04:16;19.60;99.90
23532;DHT22;11943;52.270;20.978;2022-10-16T11:06:46;19.60;99.90
23532;DHT22;11943;52.270;20.978;2022-10-16T11:09:15;19.70;99.90
23532;DHT22;11943;52.270;20.978;2022-10-16T11:12:04;19.50;99.90
23532;DHT22;11943;52.270;20.978;2022-10-16T11:14:37;19.70;99.90
23532;DHT22;11943;52.270;20.978;2022-10-16T11:17:08;19.90;99.90
23532;DHT22;11943;52.270;20.978;2022-10-16T11:19:45;19.70;99.90
23532;DHT22;11943;52.270;20.978;2022-10-16T11:25:16;19.60;99.90
23532;DHT22;11943;52.270;20.978;2022-10-16T11:30:22;19.90;99.90
23532;DHT22;11943;52.270;20.978;2022-10-16T11:35:32;19.70;99.90
23532;DHT22;11943;52.270;20.978;2022-10-16T11:37:59;19.90;99.90
23532;DHT22;11943;52.270;20.978;2022-10-16T11:40:33;19.80;99.90
23532;DHT22;11943;52.270;20.978;2022-10-16T11:43:10;19.60;99.90
23532;DHT22;11943;52.270;20.978;2022-10-16T11:45:47;19.50;99.90
23532;DHT22;11943;52.270;20.978;2022-10-16T11:50:53;19.70;99.90
23532;DHT22;11943;52.270;20.978;2022-10-16T11:53:34;19.80;99.90
23532;DHT22;11943;52.270;20.978;2022-10-16T11:56:03;20.10;99.90
23532;DHT22;11943;52.270;20.978;2022-10-16T11:58:34;20.30;99.90
23532;DHT22;11943;52.270;20.978;2022-10-16T12:03:38;20.20;99.90
23532;DHT22;11943;52.270;20.978;2022-10-16T12:08:31;19.70;99.90
23532;DHT22;11943;52.270;20.978;2022-10-16T12:11:09;19.70;99.90
23532;DHT22;11943;52.270;20.978;2022-10-16T12:13:39;19.70;99.90
23532;DHT22;11943;52.270;20.978;2022-10-16T12:18:38;19.80;99.90
23532;DHT22;11943;52.270;20.978;2022-10-16T12:21:03;19.90;99.90
23532;DHT22;11943;52.270;20.978;2022-10-16T12:23:33;20.00;99.90
23532;DHT22;11943;52.270;20.978;2022-10-16T12:26:01;19.90;99.90
23532;DHT22;11943;52.270;20.978;2022-10-16T12:28:31;19.90;99.90
23532;DHT22;11943;52.270;20.978;2022-10-16T12:30:58;19.70;99.90
23532;DHT22;11943;52.270;20.978;2022-10-16T12:33:29;19.80;99.90
23532;DHT22;11943;52.270;20.978;2022-10-16T12:35:55;19.70;99.90
23532;DHT22;11943;52.270;20.978;2022-10-16T12:38:25;19.70;99.90
23532;DHT22;11943;52.270;20.978;2022-10-16T12:45:58;19.80;99.90
23532;DHT22;11943;52.270;20.978;2022-10-16T12:48:23;19.80;99.90
23532;DHT22;11943;52.270;20.978;2022-10-16T12:50:49;19.90;99.90
23532;DHT22;11943;52.270;20.978;2022-10-16T12:53:19;19.90;99.90
23532;DHT22;11943;52.270;20.978;2022-10-16T12:56:28;19.90;99.90
23532;DHT22;11943;52.270;20.978;2022-10-16T12:58:41;19.90;99.90
23532;DHT22;11943;52.270;20.978;2022-10-16T13:01:23;19.80;99.90
23532;DHT22;11943;52.270;20.978;2022-10-16T13:09:02;19.40;99.90
23532;DHT22;11943;52.270;20.978;2022-10-16T13:11:45;19.40;99.90
23532;DHT22;11943;52.270;20.978;2022-10-16T13:14:56;19.30;99.90
23532;DHT22;11943;52.270;20.978;2022-10-16T13:19:44;19.30;99.90
23532;DHT22;11943;52.270;20.978;2022-10-16T13:22:17;19.30;99.90
23532;DHT22;11943;52.270;20.978;2022-10-16T13:24:48;19.30;99.90
23532;DHT22;11943;52.270;20.978;2022-10-16T13:29:45;19.20;99.90
23532;DHT22;11943;52.270;20.978;2022-10-16T13:32:11;19.20;99.90
23532;DHT22;11943;52.270;20.978;2022-10-16T13:34:46;19.20;99.90
23532;DHT22;11943;52.270;20.978;2022-10-16T13:37:18;19.10;99.90
23532;DHT22;11943;52.270;20.978;2022-10-16T13:39:45;19.00;99.90
23532;DHT22;11943;52.270;20.978;2022-10-16T13:42:11;19.00;99.90
23532;DHT22;11943;52.270;20.978;2022-10-16T13:44:48;19.00;99.90
23532;DHT22;11943;52.270;20.978;2022-10-16T13:47:19;19.00;99.90
23532;DHT22;11943;52.270;20.978;2022-10-16T13:49:45;19.10;99.90
23532;DHT22;11943;52.270;20.978;2022-10-16T13:52:17;19.10;99.90
23532;DHT22;11943;52.270;20.978;2022-10-16T13:54:43;19.00;99.90
23532;DHT22;11943;52.270;20.978;2022-10-16T13:57:12;19.10;99.90
23532;DHT22;11943;52.270;20.978;2022-10-16T13:59:37;19.10;99.90
23532;DHT22;11943;52.270;20.978;2022-10-16T14:04:44;19.00;99.90
23532;DHT22;11943;52.270;20.978;2022-10-16T14:07:13;19.00;99.90
23532;DHT22;11943;52.270;20.978;2022-10-16T14:09:39;19.00;99.90
23532;DHT22;11943;52.270;20.978;2022-10-16T14:12:08;19.00;99.90
23532;DHT22;11943;52.270;20.978;2022-10-16T14:14:35;19.10;99.90
23532;DHT22;11943;52.270;20.978;2022-10-16T14:17:04;19.10;99.90
23532;DHT22;11943;52.270;20.978;2022-10-16T14:19:30;19.10;99.90
23532;DHT22;11943;52.270;20.978;2022-10-16T14:21:56;19.20;99.90
23532;DHT22;11943;52.270;20.978;2022-10-16T14:24:26;19.20;99.90
23532;DHT22;11943;52.270;20.978;2022-10-16T14:26:52;19.20;99.90
23532;DHT22;11943;52.270;20.978;2022-10-16T14:29:20;19.10;99.90
23532;DHT22;11943;52.270;20.978;2022-10-16T14:31:55;19.10;99.90
23532;DHT22;11943;52.270;20.978;2022-10-16T14:36:54;19.10;99.90
23532;DHT22;11943;52.270;20.978;2022-10-16T14:39:20;19.10;99.90
23532;DHT22;11943;52.270;20.978;2022-10-16T14:41:50;19.10;99.90
23532;DHT22;11943;52.270;20.978;2022-10-16T14:44:17;19.10;99.90
23532;DHT22;11943;52.270;20.978;2022-10-16T14:46:43;19.20;99.90
23532;DHT22;11943;52.270;20.978;2022-10-16T14:51:34;19.10;99.90
23532;DHT22;11943;52.270;20.978;2022-10-16T14:54:00;19.10;99.90
23532;DHT22;11943;52.270;20.978;2022-10-16T14:56:35;19.10;99.90
23532;DHT22;11943;52.270;20.978;2022-10-16T14:59:06;19.00;99.90
23532;DHT22;11943;52.270;20.978;2022-10-16T15:01:33;19.10;99.90
23532;DHT22;11943;52.270;20.978;2022-10-16T15:03:58;19.00;99.90
23532;DHT22;11943;52.270;20.978;2022-10-16T15:06:23;19.00;99.90
23532;DHT22;11943;52.270;20.978;2022-10-16T15:08:49;19.00;99.90
23532;DHT22;11943;52.270;20.978;2022-10-16T15:11:18;18.90;99.90
23532;DHT22;11943;52.270;20.978;2022-10-16T15:13:44;18.90;99.90
23532;DHT22;11943;52.270;20.978;2022-10-16T15:16:13;18.90;99.90
23532;DHT22;11943;52.270;20.978;2022-10-16T15:18:39;18.90;99.90
23532;DHT22;11943;52.270;20.978;2022-10-16T15:21:05;18.80;99.90
23532;DHT22;11943;52.270;20.978;2022-10-16T15:23:30;18.80;99.90
23532;DHT22;11943;52.270;20.978;2022-10-16T15:25:56;18.80;99.90
23532;DHT22;11943;52.270;20.978;2022-10-16T15:28:22;18.70;99.90
23532;DHT22;11943;52.270;20.978;2022-10-16T15:30:51;18.70;99.90
23532;DHT22;11943;52.270;20.978;2022-10-16T15:33:18;18.60;99.90
23532;DHT22;11943;52.270;20.978;2022-10-16T15:35:47;18.60;99.90
23532;DHT22;11943;52.270;20.978;2022-10-16T15:38:13;18.60;99.90
23532;DHT22;11943;52.270;20.978;2022-10-16T15:40:39;18.60;99.90
23532;DHT22;11943;52.270;20.978;2022-10-16T15:43:05;18.60;99.90
23532;DHT22;11943;52.270;20.978;2022-10-16T15:45:31;18.60;99.90
23532;DHT22;11943;52.270;20.978;2022-10-16T15:47:56;18.60;99.90
23532;DHT22;11943;52.270;20.978;2022-10-16T15:50:22;18.50;99.90
23532;DHT22;11943;52.270;20.978;2022-10-16T15:52:47;18.50;99.90
23532;DHT22;11943;52.270;20.978;2022-10-16T15:55:14;18.50;99.90
23532;DHT22;11943;52.270;20.978;2022-10-16T15:57:39;18.50;99.90
23532;DHT22;11943;52.270;20.978;2022-10-16T16:00:09;18.40;99.90
23532;DHT22;11943;52.270;20.978;2022-10-16T16:02:34;18.40;99.90
23532;DHT22;11943;52.270;20.978;2022-10-16T16:05:00;18.40;99.90
23532;DHT22;11943;52.270;20.978;2022-10-16T16:07:26;18.40;99.90
23532;DHT22;11943;52.270;20.978;2022-10-16T16:09:52;18.40;99.90
23532;DHT22;11943;52.270;20.978;2022-10-16T16:12:18;18.40;99.90
23532;DHT22;11943;52.270;20.978;2022-10-16T16:14:43;18.30;99.90
23532;DHT22;11943;52.270;20.978;2022-10-16T16:17:11;18.30;99.90
23532;DHT22;11943;52.270;20.978;2022-10-16T16:19:36;18.20;99.90
23532;DHT22;11943;52.270;20.978;2022-10-16T16:22:02;18.20;99.90
23532;DHT22;11943;52.270;20.978;2022-10-16T16:24:27;18.20;99.90
23532;DHT22;11943;52.270;20.978;2022-10-16T16:26:53;18.10;99.90
23532;DHT22;11943;52.270;20.978;2022-10-16T16:29:18;18.10;99.90
23532;DHT22;11943;52.270;20.978;2022-10-16T16:31:44;18.00;99.90
23532;DHT22;11943;52.270;20.978;2022-10-16T16:34:12;18.00;99.90
23532;DHT22;11943;52.270;20.978;2022-10-16T16:36:38;18.00;99.90
23532;DHT22;11943;52.270;20.978;2022-10-16T16:39:05;18.00;99.90
23532;DHT22;11943;52.270;20.978;2022-10-16T16:41:31;18.00;99.90
23532;DHT22;11943;52.270;20.978;2022-10-16T16:44:06;18.10;99.90
23532;DHT22;11943;52.270;20.978;2022-10-16T16:46:33;18.00;99.90
23532;DHT22;11943;52.270;20.978;2022-10-16T16:48:59;18.00;99.90